sensor_id;sensor_type;location;lat;lon;timestamp;pressure;altitude;pressure_sealevel;temperature
45850;BMP180;10739;52.198;20.908;2022-08-19T00:01:42;100045.00;;;27.10
45850;BMP180;10739;52.198;20.908;2022-08-19T00:04:12;100043.00;;;27.40
45850;BMP180;10739;52.198;20.908;2022-08-19T00:06:41;100047.00;;;27.30
45850;BMP180;10739;52.198;20.908;2022-08-19T00:09:11;100044.00;;;27.40
45850;BMP180;10739;52.198;20.908;2022-08-19T00:11:39;100048.00;;;27.10
45850;BMP180;10739;52.198;20.908;2022-08-19T00:14:09;100046.00;;;27.10
45850;BMP180;10739;52.198;20.908;2022-08-19T00:16:39;100038.00;;;27.30
45850;BMP180;10739;52.198;20.908;2022-08-19T00:19:07;100045.00;;;27.30
45850;BMP180;10739;52.198;20.908;2022-08-19T00:21:34;100043.00;;;27.10
45850;BMP180;10739;52.198;20.908;2022-08-19T00:24:05;100041.00;;;27.40
45850;BMP180;10739;52.198;20.908;2022-08-19T00:26:31;100042.00;;;27.30
45850;BMP180;10739;52.198;20.908;2022-08-19T00:28:58;100041.00;;;27.20
45850;BMP180;10739;52.198;20.908;2022-08-19T00:31:27;100045.00;;;27.20
45850;BMP180;10739;52.198;20.908;2022-08-19T00:33:54;100043.00;;;27.00
45850;BMP180;10739;52.198;20.908;2022-08-19T00:36:21;100042.00;;;26.80
45850;BMP180;10739;52.198;20.908;2022-08-19T00:38:47;100039.00;;;27.00
45850;BMP180;10739;52.198;20.908;2022-08-19T00:41:15;100044.00;;;26.80
45850;BMP180;10739;52.198;20.908;2022-08-19T00:44:21;100036.00;;;27.00
45850;BMP180;10739;52.198;20.908;2022-08-19T00:46:50;100041.00;;;26.90
45850;BMP180;10739;52.198;20.908;2022-08-19T00:49:23;100043.00;;;27.00
45850;BMP180;10739;52.198;20.908;2022-08-19T00:52:02;100031.00;;;27.00
45850;BMP180;10739;52.198;20.908;2022-08-19T00:54:29;100026.00;;;26.80
45850;BMP180;10739;52.198;20.908;2022-08-19T00:56:59;100032.00;;;26.80
45850;BMP180;10739;52.198;20.908;2022-08-19T00:59:28;100032.00;;;26.90
45850;BMP180;10739;52.198;20.908;2022-08-19T01:01:55;100043.00;;;26.80
45850;BMP180;10739;52.198;20.908;2022-08-19T01:04:21;100042.00;;;26.90
45850;BMP180;10739;52.198;20.908;2022-08-19T01:06:47;100047.00;;;26.80
45850;BMP180;10739;52.198;20.908;2022-08-19T01:09:14;100042.00;;;26.80
45850;BMP180;10739;52.198;20.908;2022-08-19T01:11:43;100048.00;;;26.80
45850;BMP180;10739;52.198;20.908;2022-08-19T01:14:11;100047.00;;;26.80
45850;BMP180;10739;52.198;20.908;2022-08-19T01:16:39;100048.00;;;26.80
45850;BMP180;10739;52.198;20.908;2022-08-19T01:19:37;100039.00;;;26.80
45850;BMP180;10739;52.198;20.908;2022-08-19T01:24:50;100054.00;;;26.70
45850;BMP180;10739;52.198;20.908;2022-08-19T01:27:18;100054.00;;;26.70
45850;BMP180;10739;52.198;20.908;2022-08-19T01:29:45;100055.00;;;26.70
45850;BMP180;10739;52.198;20.908;2022-08-19T01:32:15;100054.00;;;26.70
45850;BMP180;10739;52.198;20.908;2022-08-19T01:34:42;100050.00;;;26.60
45850;BMP180;10739;52.198;20.908;2022-08-19T01:37:15;100046.00;;;26.50
45850;BMP180;10739;52.198;20.908;2022-08-19T01:39:42;100050.00;;;26.40
45850;BMP180;10739;52.198;20.908;2022-08-19T01:42:09;100032.00;;;26.50
45850;BMP180;10739;52.198;20.908;2022-08-19T01:44:39;100034.00;;;26.60
45850;BMP180;10739;52.198;20.908;2022-08-19T01:47:08;100024.00;;;26.20
45850;BMP180;10739;52.198;20.908;2022-08-19T01:49:36;100036.00;;;26.10
45850;BMP180;10739;52.198;20.908;2022-08-19T01:52:05;100031.00;;;26.20
45850;BMP180;10739;52.198;20.908;2022-08-19T01:54:32;100027.00;;;26.10
45850;BMP180;10739;52.198;20.908;2022-08-19T01:57:05;100031.00;;;26.20
45850;BMP180;10739;52.198;20.908;2022-08-19T01:59:34;100024.00;;;26.20
45850;BMP180;10739;52.198;20.908;2022-08-19T02:02:04;100034.00;;;26.20
45850;BMP180;10739;52.198;20.908;2022-08-19T02:04:33;100027.00;;;26.10
45850;BMP180;10739;52.198;20.908;2022-08-19T02:07:00;100022.00;;;26.10
45850;BMP180;10739;52.198;20.908;2022-08-19T02:09:27;100018.00;;;26.00
45850;BMP180;10739;52.198;20.908;2022-08-19T02:11:53;100015.00;;;25.90
45850;BMP180;10739;52.198;20.908;2022-08-19T02:14:19;100017.00;;;26.00
45850;BMP180;10739;52.198;20.908;2022-08-19T02:16:45;100013.00;;;26.00
45850;BMP180;10739;52.198;20.908;2022-08-19T02:19:11;100013.00;;;26.10
45850;BMP180;10739;52.198;20.908;2022-08-19T02:21:37;100011.00;;;26.00
45850;BMP180;10739;52.198;20.908;2022-08-19T02:24:04;100018.00;;;26.00
45850;BMP180;10739;52.198;20.908;2022-08-19T02:26:31;100012.00;;;26.10
45850;BMP180;10739;52.198;20.908;2022-08-19T02:28:57;100006.00;;;26.20
45850;BMP180;10739;52.198;20.908;2022-08-19T02:31:26;100009.00;;;26.10
45850;BMP180;10739;52.198;20.908;2022-08-19T02:33:55;100010.00;;;26.10
45850;BMP180;10739;52.198;20.908;2022-08-19T02:36:24;100011.00;;;26.20
45850;BMP180;10739;52.198;20.908;2022-08-19T02:38:50;100005.00;;;26.10
45850;BMP180;10739;52.198;20.908;2022-08-19T02:41:22;100007.00;;;26.10
45850;BMP180;10739;52.198;20.908;2022-08-19T02:43:48;100015.00;;;26.10
45850;BMP180;10739;52.198;20.908;2022-08-19T02:46:32;100012.00;;;26.10
45850;BMP180;10739;52.198;20.908;2022-08-19T02:49:03;100014.00;;;26.10
45850;BMP180;10739;52.198;20.908;2022-08-19T02:51:39;100024.00;;;26.10
45850;BMP180;10739;52.198;20.908;2022-08-19T02:54:07;100020.00;;;25.90
45850;BMP180;10739;52.198;20.908;2022-08-19T02:56:36;100019.00;;;25.90
45850;BMP180;10739;52.198;20.908;2022-08-19T02:59:03;100010.00;;;26.00
45850;BMP180;10739;52.198;20.908;2022-08-19T03:01:35;100013.00;;;26.00
45850;BMP180;10739;52.198;20.908;2022-08-19T03:04:04;100011.00;;;25.80
45850;BMP180;10739;52.198;20.908;2022-08-19T03:06:32;100018.00;;;25.80
45850;BMP180;10739;52.198;20.908;2022-08-19T03:09:01;100012.00;;;25.80
45850;BMP180;10739;52.198;20.908;2022-08-19T03:11:31;100014.00;;;25.70
45850;BMP180;10739;52.198;20.908;2022-08-19T03:13:59;100011.00;;;25.60
45850;BMP180;10739;52.198;20.908;2022-08-19T03:16:29;100009.00;;;25.80
45850;BMP180;10739;52.198;20.908;2022-08-19T03:18:57;100001.00;;;25.70
45850;BMP180;10739;52.198;20.908;2022-08-19T03:21:30;100003.00;;;25.70
45850;BMP180;10739;52.198;20.908;2022-08-19T03:24:00;100003.00;;;25.90
45850;BMP180;10739;52.198;20.908;2022-08-19T03:26:27;100005.00;;;25.80
45850;BMP180;10739;52.198;20.908;2022-08-19T03:28:54;100008.00;;;25.70
45850;BMP180;10739;52.198;20.908;2022-08-19T03:31:22;100016.00;;;25.80
45850;BMP180;10739;52.198;20.908;2022-08-19T03:33:50;100022.00;;;25.70
45850;BMP180;10739;52.198;20.908;2022-08-19T03:36:20;100018.00;;;25.60
45850;BMP180;10739;52.198;20.908;2022-08-19T03:38:58;100022.00;;;25.70
45850;BMP180;10739;52.198;20.908;2022-08-19T03:41:41;100020.00;;;25.60
45850;BMP180;10739;52.198;20.908;2022-08-19T03:44:08;100018.00;;;25.60
45850;BMP180;10739;52.198;20.908;2022-08-19T03:46:35;100016.00;;;25.40
45850;BMP180;10739;52.198;20.908;2022-08-19T03:49:04;100025.00;;;25.40
45850;BMP180;10739;52.198;20.908;2022-08-19T03:51:37;100038.00;;;25.70
45850;BMP180;10739;52.198;20.908;2022-08-19T03:54:08;100033.00;;;25.50
45850;BMP180;10739;52.198;20.908;2022-08-19T03:56:38;100033.00;;;25.60
45850;BMP180;10739;52.198;20.908;2022-08-19T03:59:08;100042.00;;;25.70
45850;BMP180;10739;52.198;20.908;2022-08-19T04:01:36;100032.00;;;25.70
45850;BMP180;10739;52.198;20.908;2022-08-19T04:04:03;100033.00;;;25.70
45850;BMP180;10739;52.198;20.908;2022-08-19T04:06:33;100033.00;;;25.70
45850;BMP180;10739;52.198;20.908;2022-08-19T04:09:03;100022.00;;;25.80
45850;BMP180;10739;52.198;20.908;2022-08-19T04:11:45;100034.00;;;25.80
45850;BMP180;10739;52.198;20.908;2022-08-19T04:14:17;100023.00;;;25.80
45850;BMP180;10739;52.198;20.908;2022-08-19T04:16:45;100023.00;;;25.90
45850;BMP180;10739;52.198;20.908;2022-08-19T04:19:14;100021.00;;;26.10
45850;BMP180;10739;52.198;20.908;2022-08-19T04:21:46;100019.00;;;26.20
45850;BMP180;10739;52.198;20.908;2022-08-19T04:24:14;100021.00;;;26.10
45850;BMP180;10739;52.198;20.908;2022-08-19T04:26:41;100010.00;;;26.20
45850;BMP180;10739;52.198;20.908;2022-08-19T04:29:15;100025.00;;;26.20
45850;BMP180;10739;52.198;20.908;2022-08-19T04:31:43;100026.00;;;26.50
45850;BMP180;10739;52.198;20.908;2022-08-19T04:34:14;100032.00;;;26.50
45850;BMP180;10739;52.198;20.908;2022-08-19T04:36:44;100038.00;;;26.50
45850;BMP180;10739;52.198;20.908;2022-08-19T04:39:17;100032.00;;;26.60
45850;BMP180;10739;52.198;20.908;2022-08-19T04:41:44;100032.00;;;26.70
45850;BMP180;10739;52.198;20.908;2022-08-19T04:44:34;100029.00;;;26.80
45850;BMP180;10739;52.198;20.908;2022-08-19T04:47:02;100024.00;;;26.90
45850;BMP180;10739;52.198;20.908;2022-08-19T04:49:31;100019.00;;;26.90
45850;BMP180;10739;52.198;20.908;2022-08-19T04:51:57;100020.00;;;27.10
45850;BMP180;10739;52.198;20.908;2022-08-19T04:54:25;100022.00;;;27.10
45850;BMP180;10739;52.198;20.908;2022-08-19T04:56:52;100021.00;;;27.10
45850;BMP180;10739;52.198;20.908;2022-08-19T04:59:21;100017.00;;;26.60
45850;BMP180;10739;52.198;20.908;2022-08-19T05:01:48;100027.00;;;26.60
45850;BMP180;10739;52.198;20.908;2022-08-19T05:04:19;100018.00;;;26.90
45850;BMP180;10739;52.198;20.908;2022-08-19T05:06:48;100028.00;;;27.00
45850;BMP180;10739;52.198;20.908;2022-08-19T05:09:16;100018.00;;;27.20
45850;BMP180;10739;52.198;20.908;2022-08-19T05:11:43;100028.00;;;27.20
45850;BMP180;10739;52.198;20.908;2022-08-19T05:14:11;100027.00;;;27.20
45850;BMP180;10739;52.198;20.908;2022-08-19T05:16:39;100024.00;;;27.30
45850;BMP180;10739;52.198;20.908;2022-08-19T05:19:06;100020.00;;;27.20
45850;BMP180;10739;52.198;20.908;2022-08-19T05:21:51;100032.00;;;27.00
45850;BMP180;10739;52.198;20.908;2022-08-19T05:24:36;100033.00;;;26.90
45850;BMP180;10739;52.198;20.908;2022-08-19T05:27:03;100045.00;;;27.20
45850;BMP180;10739;52.198;20.908;2022-08-19T05:29:33;100041.00;;;27.20
45850;BMP180;10739;52.198;20.908;2022-08-19T05:32:06;100031.00;;;27.30
45850;BMP180;10739;52.198;20.908;2022-08-19T05:34:37;100031.00;;;27.30
45850;BMP180;10739;52.198;20.908;2022-08-19T05:37:06;100030.00;;;27.50
45850;BMP180;10739;52.198;20.908;2022-08-19T05:39:36;100039.00;;;27.60
45850;BMP180;10739;52.198;20.908;2022-08-19T05:42:07;100047.00;;;27.60
45850;BMP180;10739;52.198;20.908;2022-08-19T05:44:39;100049.00;;;27.50
45850;BMP180;10739;52.198;20.908;2022-08-19T05:47:10;100054.00;;;27.70
45850;BMP180;10739;52.198;20.908;2022-08-19T05:49:37;100057.00;;;27.70
45850;BMP180;10739;52.198;20.908;2022-08-19T05:52:10;100047.00;;;27.90
45850;BMP180;10739;52.198;20.908;2022-08-19T05:54:39;100044.00;;;27.60
45850;BMP180;10739;52.198;20.908;2022-08-19T05:57:08;100046.00;;;27.30
45850;BMP180;10739;52.198;20.908;2022-08-19T05:59:35;100032.00;;;27.30
45850;BMP180;10739;52.198;20.908;2022-08-19T06:02:04;100034.00;;;27.80
45850;BMP180;10739;52.198;20.908;2022-08-19T06:04:30;100025.00;;;28.10
45850;BMP180;10739;52.198;20.908;2022-08-19T06:06:57;100023.00;;;28.20
45850;BMP180;10739;52.198;20.908;2022-08-19T06:09:24;100025.00;;;27.70
45850;BMP180;10739;52.198;20.908;2022-08-19T06:11:55;100025.00;;;28.20
45850;BMP180;10739;52.198;20.908;2022-08-19T06:14:32;100034.00;;;27.80
45850;BMP180;10739;52.198;20.908;2022-08-19T06:17:00;100046.00;;;27.80
45850;BMP180;10739;52.198;20.908;2022-08-19T06:19:29;100042.00;;;28.00
45850;BMP180;10739;52.198;20.908;2022-08-19T06:21:58;100041.00;;;28.30
45850;BMP180;10739;52.198;20.908;2022-08-19T06:24:27;100049.00;;;28.20
45850;BMP180;10739;52.198;20.908;2022-08-19T06:26:56;100052.00;;;28.30
45850;BMP180;10739;52.198;20.908;2022-08-19T06:29:25;100048.00;;;28.30
45850;BMP180;10739;52.198;20.908;2022-08-19T06:31:58;100052.00;;;28.60
45850;BMP180;10739;52.198;20.908;2022-08-19T06:34:28;100056.00;;;28.40
45850;BMP180;10739;52.198;20.908;2022-08-19T06:36:56;100062.00;;;28.40
45850;BMP180;10739;52.198;20.908;2022-08-19T06:39:32;100056.00;;;28.50
45850;BMP180;10739;52.198;20.908;2022-08-19T06:42:02;100061.00;;;28.50
45850;BMP180;10739;52.198;20.908;2022-08-19T06:44:31;100056.00;;;28.30
45850;BMP180;10739;52.198;20.908;2022-08-19T06:47:07;100052.00;;;28.40
45850;BMP180;10739;52.198;20.908;2022-08-19T06:49:34;100056.00;;;28.50
45850;BMP180;10739;52.198;20.908;2022-08-19T06:52:03;100049.00;;;28.30
45850;BMP180;10739;52.198;20.908;2022-08-19T06:54:30;100053.00;;;28.90
45850;BMP180;10739;52.198;20.908;2022-08-19T06:56:58;100043.00;;;28.40
45850;BMP180;10739;52.198;20.908;2022-08-19T06:59:29;100047.00;;;28.50
45850;BMP180;10739;52.198;20.908;2022-08-19T07:02:03;100045.00;;;28.90
45850;BMP180;10739;52.198;20.908;2022-08-19T07:04:33;100055.00;;;28.90
45850;BMP180;10739;52.198;20.908;2022-08-19T07:07:05;100054.00;;;29.20
45850;BMP180;10739;52.198;20.908;2022-08-19T07:09:33;100060.00;;;29.40
45850;BMP180;10739;52.198;20.908;2022-08-19T07:11:59;100060.00;;;29.30
45850;BMP180;10739;52.198;20.908;2022-08-19T07:14:28;100057.00;;;30.00
45850;BMP180;10739;52.198;20.908;2022-08-19T07:16:56;100054.00;;;29.90
45850;BMP180;10739;52.198;20.908;2022-08-19T07:19:25;100067.00;;;29.90
45850;BMP180;10739;52.198;20.908;2022-08-19T07:21:54;100053.00;;;29.60
45850;BMP180;10739;52.198;20.908;2022-08-19T07:24:23;100053.00;;;30.60
45850;BMP180;10739;52.198;20.908;2022-08-19T07:26:53;100045.00;;;30.80
45850;BMP180;10739;52.198;20.908;2022-08-19T07:29:21;100034.00;;;30.70
45850;BMP180;10739;52.198;20.908;2022-08-19T07:31:53;100036.00;;;30.80
45850;BMP180;10739;52.198;20.908;2022-08-19T07:34:23;100035.00;;;30.50
45850;BMP180;10739;52.198;20.908;2022-08-19T07:36:50;100037.00;;;30.70
45850;BMP180;10739;52.198;20.908;2022-08-19T07:39:24;100024.00;;;30.70
45850;BMP180;10739;52.198;20.908;2022-08-19T07:41:51;100039.00;;;31.20
45850;BMP180;10739;52.198;20.908;2022-08-19T07:44:19;100037.00;;;31.10
45850;BMP180;10739;52.198;20.908;2022-08-19T07:46:50;100046.00;;;30.80
45850;BMP180;10739;52.198;20.908;2022-08-19T07:49:20;100041.00;;;30.50
45850;BMP180;10739;52.198;20.908;2022-08-19T07:52:00;100039.00;;;30.80
45850;BMP180;10739;52.198;20.908;2022-08-19T07:54:30;100043.00;;;30.90
45850;BMP180;10739;52.198;20.908;2022-08-19T07:56:57;100045.00;;;31.10
45850;BMP180;10739;52.198;20.908;2022-08-19T07:59:24;100036.00;;;31.10
45850;BMP180;10739;52.198;20.908;2022-08-19T08:01:51;100039.00;;;30.60
45850;BMP180;10739;52.198;20.908;2022-08-19T08:04:19;100032.00;;;30.70
45850;BMP180;10739;52.198;20.908;2022-08-19T08:07:06;100034.00;;;31.00
45850;BMP180;10739;52.198;20.908;2022-08-19T08:09:52;100030.00;;;31.20
45850;BMP180;10739;52.198;20.908;2022-08-19T08:12:25;100035.00;;;31.30
45850;BMP180;10739;52.198;20.908;2022-08-19T08:15:00;100043.00;;;31.40
45850;BMP180;10739;52.198;20.908;2022-08-19T08:17:31;100043.00;;;31.70
45850;BMP180;10739;52.198;20.908;2022-08-19T08:19:57;100054.00;;;31.80
45850;BMP180;10739;52.198;20.908;2022-08-19T08:22:24;100041.00;;;32.20
45850;BMP180;10739;52.198;20.908;2022-08-19T08:25:17;100051.00;;;32.00
45850;BMP180;10739;52.198;20.908;2022-08-19T08:27:45;100041.00;;;31.80
45850;BMP180;10739;52.198;20.908;2022-08-19T08:30:17;100054.00;;;32.20
45850;BMP180;10739;52.198;20.908;2022-08-19T08:32:44;100052.00;;;32.60
45850;BMP180;10739;52.198;20.908;2022-08-19T08:35:16;100050.00;;;32.50
45850;BMP180;10739;52.198;20.908;2022-08-19T08:37:44;100038.00;;;32.90
45850;BMP180;10739;52.198;20.908;2022-08-19T08:45:38;100046.00;;;33.50
45850;BMP180;10739;52.198;20.908;2022-08-19T08:48:40;100050.00;;;33.60
45850;BMP180;10739;52.198;20.908;2022-08-19T08:51:14;100055.00;;;33.50
45850;BMP180;10739;52.198;20.908;2022-08-19T08:53:43;100054.00;;;33.90
45850;BMP180;10739;52.198;20.908;2022-08-19T08:56:11;100069.00;;;33.50
45850;BMP180;10739;52.198;20.908;2022-08-19T08:59:30;100062.00;;;33.00
45850;BMP180;10739;52.198;20.908;2022-08-19T09:02:00;100059.00;;;33.80
45850;BMP180;10739;52.198;20.908;2022-08-19T09:04:27;100057.00;;;34.10
45850;BMP180;10739;52.198;20.908;2022-08-19T09:07:37;100054.00;;;34.20
45850;BMP180;10739;52.198;20.908;2022-08-19T09:10:33;100054.00;;;34.50
45850;BMP180;10739;52.198;20.908;2022-08-19T09:13:27;100063.00;;;35.50
45850;BMP180;10739;52.198;20.908;2022-08-19T09:16:12;100057.00;;;35.90
45850;BMP180;10739;52.198;20.908;2022-08-19T09:18:51;100063.00;;;36.20
45850;BMP180;10739;52.198;20.908;2022-08-19T09:21:22;100059.00;;;36.50
45850;BMP180;10739;52.198;20.908;2022-08-19T09:23:49;100060.00;;;36.70
45850;BMP180;10739;52.198;20.908;2022-08-19T09:26:23;100060.00;;;36.60
45850;BMP180;10739;52.198;20.908;2022-08-19T09:28:51;100066.00;;;36.70
45850;BMP180;10739;52.198;20.908;2022-08-19T09:31:24;100085.00;;;36.80
45850;BMP180;10739;52.198;20.908;2022-08-19T09:33:53;100084.00;;;37.50
45850;BMP180;10739;52.198;20.908;2022-08-19T09:36:25;100075.00;;;37.90
45850;BMP180;10739;52.198;20.908;2022-08-19T09:38:53;100079.00;;;38.00
45850;BMP180;10739;52.198;20.908;2022-08-19T09:41:23;100069.00;;;37.50
45850;BMP180;10739;52.198;20.908;2022-08-19T09:43:52;100084.00;;;37.20
45850;BMP180;10739;52.198;20.908;2022-08-19T09:46:25;100086.00;;;37.50
45850;BMP180;10739;52.198;20.908;2022-08-19T09:48:53;100089.00;;;37.20
45850;BMP180;10739;52.198;20.908;2022-08-19T09:51:24;100087.00;;;38.00
45850;BMP180;10739;52.198;20.908;2022-08-19T09:53:52;100076.00;;;37.70
45850;BMP180;10739;52.198;20.908;2022-08-19T09:56:22;100076.00;;;37.70
45850;BMP180;10739;52.198;20.908;2022-08-19T09:58:48;100081.00;;;38.30
45850;BMP180;10739;52.198;20.908;2022-08-19T10:01:22;100070.00;;;38.70
45850;BMP180;10739;52.198;20.908;2022-08-19T10:03:52;100073.00;;;39.70
45850;BMP180;10739;52.198;20.908;2022-08-19T10:06:25;100069.00;;;38.40
45850;BMP180;10739;52.198;20.908;2022-08-19T10:08:54;100061.00;;;38.70
45850;BMP180;10739;52.198;20.908;2022-08-19T10:11:21;100053.00;;;38.80
45850;BMP180;10739;52.198;20.908;2022-08-19T10:13:47;100066.00;;;39.10
45850;BMP180;10739;52.198;20.908;2022-08-19T10:16:20;100065.00;;;38.90
45850;BMP180;10739;52.198;20.908;2022-08-19T10:18:49;100069.00;;;39.30
45850;BMP180;10739;52.198;20.908;2022-08-19T10:21:22;100062.00;;;39.40
45850;BMP180;10739;52.198;20.908;2022-08-19T10:23:51;100055.00;;;39.40
45850;BMP180;10739;52.198;20.908;2022-08-19T10:26:23;100061.00;;;39.60
45850;BMP180;10739;52.198;20.908;2022-08-19T10:28:50;100056.00;;;39.00
45850;BMP180;10739;52.198;20.908;2022-08-19T10:31:24;100062.00;;;38.60
45850;BMP180;10739;52.198;20.908;2022-08-19T10:33:51;100058.00;;;39.20
45850;BMP180;10739;52.198;20.908;2022-08-19T10:36:35;100059.00;;;38.80
45850;BMP180;10739;52.198;20.908;2022-08-19T10:39:08;100055.00;;;39.00
45850;BMP180;10739;52.198;20.908;2022-08-19T10:41:37;100058.00;;;39.70
45850;BMP180;10739;52.198;20.908;2022-08-19T10:44:08;100059.00;;;38.90
45850;BMP180;10739;52.198;20.908;2022-08-19T10:46:39;100052.00;;;39.30
45850;BMP180;10739;52.198;20.908;2022-08-19T10:49:07;100067.00;;;39.60
45850;BMP180;10739;52.198;20.908;2022-08-19T10:51:34;100057.00;;;40.00
45850;BMP180;10739;52.198;20.908;2022-08-19T10:54:20;100049.00;;;40.20
45850;BMP180;10739;52.198;20.908;2022-08-19T10:56:46;100052.00;;;40.00
45850;BMP180;10739;52.198;20.908;2022-08-19T10:59:25;100035.00;;;40.40
45850;BMP180;10739;52.198;20.908;2022-08-19T11:01:51;100050.00;;;40.00
45850;BMP180;10739;52.198;20.908;2022-08-19T11:04:19;100046.00;;;40.10
45850;BMP180;10739;52.198;20.908;2022-08-19T11:06:48;100041.00;;;40.10
45850;BMP180;10739;52.198;20.908;2022-08-19T11:09:21;100039.00;;;40.50
45850;BMP180;10739;52.198;20.908;2022-08-19T11:11:48;100035.00;;;40.90
45850;BMP180;10739;52.198;20.908;2022-08-19T11:14:17;100035.00;;;41.00
45850;BMP180;10739;52.198;20.908;2022-08-19T11:16:48;100032.00;;;41.10
45850;BMP180;10739;52.198;20.908;2022-08-19T11:19:15;100029.00;;;40.70
45850;BMP180;10739;52.198;20.908;2022-08-19T11:21:47;100031.00;;;40.60
45850;BMP180;10739;52.198;20.908;2022-08-19T11:24:18;100019.00;;;40.00
45850;BMP180;10739;52.198;20.908;2022-08-19T11:26:47;100019.00;;;40.00
45850;BMP180;10739;52.198;20.908;2022-08-19T11:29:19;100030.00;;;39.50
45850;BMP180;10739;52.198;20.908;2022-08-19T11:31:49;100016.00;;;40.00
45850;BMP180;10739;52.198;20.908;2022-08-19T11:34:20;100027.00;;;39.60
45850;BMP180;10739;52.198;20.908;2022-08-19T11:36:48;100020.00;;;40.10
45850;BMP180;10739;52.198;20.908;2022-08-19T11:39:19;100015.00;;;39.50
45850;BMP180;10739;52.198;20.908;2022-08-19T11:41:47;100024.00;;;38.50
45850;BMP180;10739;52.198;20.908;2022-08-19T11:44:13;100020.00;;;38.40
45850;BMP180;10739;52.198;20.908;2022-08-19T11:46:42;100012.00;;;38.70
45850;BMP180;10739;52.198;20.908;2022-08-19T11:49:18;99990.00;;;39.20
45850;BMP180;10739;52.198;20.908;2022-08-19T11:51:45;99995.00;;;39.60
45850;BMP180;10739;52.198;20.908;2022-08-19T11:54:13;99988.00;;;39.80
45850;BMP180;10739;52.198;20.908;2022-08-19T11:56:41;99993.00;;;38.80
45850;BMP180;10739;52.198;20.908;2022-08-19T11:59:09;99984.00;;;39.00
45850;BMP180;10739;52.198;20.908;2022-08-19T12:01:36;99986.00;;;39.20
45850;BMP180;10739;52.198;20.908;2022-08-19T12:04:03;99981.00;;;39.70
45850;BMP180;10739;52.198;20.908;2022-08-19T12:06:32;99982.00;;;39.60
45850;BMP180;10739;52.198;20.908;2022-08-19T12:09:05;99986.00;;;39.30
45850;BMP180;10739;52.198;20.908;2022-08-19T12:11:32;99972.00;;;40.00
45850;BMP180;10739;52.198;20.908;2022-08-19T12:13:58;99984.00;;;40.10
45850;BMP180;10739;52.198;20.908;2022-08-19T12:16:28;99980.00;;;39.80
45850;BMP180;10739;52.198;20.908;2022-08-19T12:18:56;99979.00;;;39.60
45850;BMP180;10739;52.198;20.908;2022-08-19T12:21:27;99978.00;;;39.80
45850;BMP180;10739;52.198;20.908;2022-08-19T12:23:58;99974.00;;;40.10
45850;BMP180;10739;52.198;20.908;2022-08-19T12:26:27;99970.00;;;40.10
45850;BMP180;10739;52.198;20.908;2022-08-19T12:28:53;99961.00;;;40.40
45850;BMP180;10739;52.198;20.908;2022-08-19T12:31:20;99957.00;;;40.50
45850;BMP180;10739;52.198;20.908;2022-08-19T12:33:47;99958.00;;;39.80
45850;BMP180;10739;52.198;20.908;2022-08-19T12:36:16;99964.00;;;39.50
45850;BMP180;10739;52.198;20.908;2022-08-19T12:38:44;99961.00;;;40.00
45850;BMP180;10739;52.198;20.908;2022-08-19T12:41:15;99963.00;;;40.40
45850;BMP180;10739;52.198;20.908;2022-08-19T12:43:43;99959.00;;;40.20
45850;BMP180;10739;52.198;20.908;2022-08-19T12:46:10;99948.00;;;40.20
45850;BMP180;10739;52.198;20.908;2022-08-19T12:48:37;99951.00;;;40.50
45850;BMP180;10739;52.198;20.908;2022-08-19T12:51:10;99949.00;;;40.80
45850;BMP180;10739;52.198;20.908;2022-08-19T12:53:36;99953.00;;;40.90
45850;BMP180;10739;52.198;20.908;2022-08-19T12:56:04;99942.00;;;41.20
45850;BMP180;10739;52.198;20.908;2022-08-19T12:58:31;99935.00;;;40.60
45850;BMP180;10739;52.198;20.908;2022-08-19T13:00:57;99937.00;;;40.30
45850;BMP180;10739;52.198;20.908;2022-08-19T13:03:23;99942.00;;;39.70
45850;BMP180;10739;52.198;20.908;2022-08-19T13:05:55;99945.00;;;38.90
45850;BMP180;10739;52.198;20.908;2022-08-19T13:08:21;99947.00;;;39.30
45850;BMP180;10739;52.198;20.908;2022-08-19T13:10:47;99939.00;;;40.00
45850;BMP180;10739;52.198;20.908;2022-08-19T13:13:13;99933.00;;;40.00
45850;BMP180;10739;52.198;20.908;2022-08-19T13:15:41;99947.00;;;39.50
45850;BMP180;10739;52.198;20.908;2022-08-19T13:18:10;99941.00;;;39.40
45850;BMP180;10739;52.198;20.908;2022-08-19T13:20:39;99946.00;;;40.10
45850;BMP180;10739;52.198;20.908;2022-08-19T13:23:07;99943.00;;;40.50
45850;BMP180;10739;52.198;20.908;2022-08-19T13:25:34;99947.00;;;41.20
45850;BMP180;10739;52.198;20.908;2022-08-19T13:28:00;99944.00;;;41.00
45850;BMP180;10739;52.198;20.908;2022-08-19T13:30:26;99938.00;;;40.90
45850;BMP180;10739;52.198;20.908;2022-08-19T13:33:10;99944.00;;;40.60
45850;BMP180;10739;52.198;20.908;2022-08-19T13:35:42;99944.00;;;40.60
45850;BMP180;10739;52.198;20.908;2022-08-19T13:38:09;99941.00;;;40.40
45850;BMP180;10739;52.198;20.908;2022-08-19T13:40:37;99937.00;;;40.50
45850;BMP180;10739;52.198;20.908;2022-08-19T13:43:04;99931.00;;;40.70
45850;BMP180;10739;52.198;20.908;2022-08-19T13:45:33;99942.00;;;40.00
45850;BMP180;10739;52.198;20.908;2022-08-19T13:48:03;99942.00;;;39.90
45850;BMP180;10739;52.198;20.908;2022-08-19T13:50:41;99944.00;;;39.80
45850;BMP180;10739;52.198;20.908;2022-08-19T13:53:10;99951.00;;;40.10
45850;BMP180;10739;52.198;20.908;2022-08-19T13:55:39;99951.00;;;40.10
45850;BMP180;10739;52.198;20.908;2022-08-19T13:58:05;99950.00;;;40.20
45850;BMP180;10739;52.198;20.908;2022-08-19T14:00:38;99936.00;;;39.90
45850;BMP180;10739;52.198;20.908;2022-08-19T14:03:04;99946.00;;;39.70
45850;BMP180;10739;52.198;20.908;2022-08-19T14:05:32;99958.00;;;39.60
45850;BMP180;10739;52.198;20.908;2022-08-19T14:07:58;99948.00;;;39.60
45850;BMP180;10739;52.198;20.908;2022-08-19T14:10:26;99959.00;;;39.70
45850;BMP180;10739;52.198;20.908;2022-08-19T14:12:56;99947.00;;;39.90